< Typhoon 198223 1982 Season Typhoon 198225 >
Typhoon 198224 (PAMELA)
General InformationTrack Information on Google MapsDetailed Wind InformationList of All Images || Disaster Info.ResourceGoogle EarthGE AnimationAtom FeedGeoJSON
Detalied Best Track (Time Zone = UTC)
Year Month Day Hour Lat. Long. Pressure (hPa) Wind (kt) Class Image Chart
1982 11 23 06 8.0 177.0 1006 0 2 Image Chart
1982 11 23 12 8.0 177.0 1006 0 2 Image Chart
1982 11 23 18 7.5 176.0 1006 0 2 Image Chart
1982 11 24 00 7.0 175.0 1004 0 2 Image Chart
1982 11 24 06 7.0 174.0 1002 0 2 Image Chart
1982 11 24 12 7.0 173.0 1002 0 2 Image Chart
1982 11 24 18 7.0 172.5 996 45 3 Image Chart
1982 11 25 00 7.2 172.1 985 55 4 Image Chart
1982 11 25 06 7.3 171.5 985 55 4 Image Chart
1982 11 25 12 7.5 170.5 985 55 4 Image Chart
1982 11 25 18 7.5 169.7 985 60 4 Image Chart
1982 11 26 00 7.9 168.7 985 60 4 Image Chart
1982 11 26 06 8.4 167.6 980 65 5 Image Chart
1982 11 26 12 9.1 166.4 970 70 5 Image Chart
1982 11 26 18 9.6 165.1 970 70 5 Image Chart
1982 11 27 00 10.0 164.0 960 70 5 Image Chart
1982 11 27 06 10.4 163.1 940 75 5 Image Chart
1982 11 27 12 10.9 162.1 945 75 5 Image Chart
1982 11 27 18 11.4 161.2 945 90 5 Image Chart
1982 11 28 00 11.9 160.3 955 80 5 Image Chart
1982 11 28 06 12.5 159.9 950 80 5 Image Chart
1982 11 28 12 13.0 159.3 950 90 5 Image Chart
1982 11 28 18 13.4 158.8 955 90 5 Image Chart
1982 11 29 00 13.7 158.4 965 80 5 Image Chart
1982 11 29 06 13.6 158.2 980 65 5 Image Chart
1982 11 29 12 13.4 157.7 985 55 4 Image Chart
1982 11 29 18 13.0 157.0 985 55 4 Image Chart
1982 11 30 00 12.4 156.0 994 40 3 Image Chart
1982 11 30 06 12.1 154.7 996 45 3 Image Chart
1982 11 30 12 11.5 153.3 996 45 3 Image Chart
1982 11 30 18 11.4 151.7 996 45 3 Image Chart
1982 12 1 00 11.7 149.8 1000 35 3 Image Chart
1982 12 1 06 11.9 147.6 1000 35 3 Image Chart
1982 12 1 12 12.1 145.2 1000 40 3 Image Chart
1982 12 1 18 12.2 143.0 1000 35 3 Image Chart
1982 12 2 00 12.2 141.0 998 35 3 Image Chart
1982 12 2 06 12.3 139.1 998 35 3 Image Chart
1982 12 2 12 12.5 137.4 998 35 3 Image Chart
1982 12 2 18 13.1 136.0 998 35 3 Image Chart
1982 12 3 00 13.7 134.7 992 35 3 Image Chart
1982 12 3 06 14.4 133.2 990 50 4 Image Chart
1982 12 3 12 14.9 132.3 985 55 4 Image Chart
1982 12 3 18 15.2 131.7 985 55 4 Image Chart
1982 12 4 00 15.5 131.1 990 55 4 Image Chart
1982 12 4 06 15.7 130.6 985 55 4 Image Chart
1982 12 4 12 15.9 130.1 980 65 5 Image Chart
1982 12 4 18 16.0 129.8 970 65 5 Image Chart
1982 12 5 00 16.1 129.5 960 75 5 Image Chart
1982 12 5 06 16.3 129.4 975 75 5 Image Chart
1982 12 5 12 16.3 129.0 985 60 4 Image Chart
1982 12 5 18 16.0 128.9 985 55 4 Image Chart
1982 12 6 00 15.6 128.6 985 55 4 Image Chart
1982 12 6 06 15.3 128.3 990 50 4 Image Chart
1982 12 6 12 14.4 127.4 985 50 4 Image Chart
1982 12 6 18 13.8 126.5 985 50 4 Image Chart
1982 12 7 00 13.4 125.5 990 50 4 Image Chart
1982 12 7 06 12.7 124.0 996 50 4 Image Chart
1982 12 7 12 12.1 122.5 996 50 4 Image Chart
1982 12 7 18 11.6 121.0 1000 45 3 Image Chart
1982 12 8 00 11.0 119.5 1000 40 3 Image Chart
Japan Meteorological Agency Best Track Data | Correction Date : 1993-07-19
< Typhoon 198223 1982 Season Typhoon 198225 >

Help